Time;durP1;ratioP1;P1;durP2;ratioP2;P2;SDS_P1;SDS_P2;PMS_P1;PMS_P2;Temp;Humidity;BMP_temperature;BMP_pressure;BME280_temperature;BME280_humidity;BME280_pressure;Samples;Min_cycle;Max_cycle;Signal;HPM_P1;HPM_P2
2022/12/27 00:01:51;;;;;;;;;;;;;;;21.31;28.24;98511.84;5098456;28;1035;-79
2022/12/27 00:04:17;;;;;;;;;;;;;;;21.39;28.10;98510.47;5098519;28;1067;-79
2022/12/27 00:06:43;;;;;;;;;;;;;;;20.97;28.58;98509.16;5098864;28;983;-78
2022/12/27 00:09:08;;;;;;;;;;;;;;;20.90;28.69;98506.44;5097866;28;1989;-79
2022/12/27 00:11:34;;;;;;;;;;;;;;;20.73;28.84;98500.63;5098489;28;918;-78
2022/12/27 00:14:00;;;;;;;;;;;;;;;21.04;28.69;98509.06;5097957;28;851;-78
2022/12/27 00:16:25;;;;;;;;;;;;;;;21.36;27.91;98497.22;5097208;28;960;-79
2022/12/27 00:18:51;;;;;;;;;;;;;;;21.35;28.19;98500.44;5097388;28;998;-79
2022/12/27 00:21:17;;;;;;;;;;;;;;;21.21;27.94;98502.28;5098421;28;966;-79
2022/12/27 00:23:44;;;;;;;;;;;;;;;20.94;28.69;98498.69;5096529;28;1009;-78
2022/12/27 00:26:19;;;;;;;;;;;;;;;20.80;28.89;98505.38;5098564;28;1045;-79
2022/12/27 00:28:45;;;;;;;;;;;;;;;21.26;28.38;98501.78;5096941;28;1913;-78
2022/12/27 00:31:11;;;;;;;;;;;;;;;21.13;28.31;98500.78;5098761;28;1003;-79
2022/12/27 00:33:37;;;;;;;;;;;;;;;21.37;27.80;98498.00;5097209;28;1004;-78
2022/12/27 00:36:03;;;;;;;;;;;;;;;21.47;27.66;98485.69;5097471;28;1098;-79
2022/12/27 00:38:29;;;;;;;;;;;;;;;21.16;28.06;98487.81;5095607;28;1086;-78
2022/12/27 00:40:55;;;;;;;;;;;;;;;20.62;28.86;98488.66;5098368;28;983;-79
2022/12/27 00:43:20;;;;;;;;;;;;;;;20.84;28.71;98488.34;5096953;28;1075;-78
2022/12/27 00:45:45;;;;;;;;;;;;;;;21.31;28.16;98487.19;5097936;28;1018;-78
2022/12/27 00:48:11;;;;;;;;;;;;;;;21.32;27.82;98485.94;5096578;28;1910;-78
2022/12/27 00:50:38;;;;;;;;;;;;;;;20.89;28.39;98479.38;5097127;28;965;-79
2022/12/27 00:53:03;;;;;;;;;;;;;;;20.59;28.76;98472.56;5097631;28;972;-78
2022/12/27 00:55:28;;;;;;;;;;;;;;;20.50;29.00;98470.25;5079125;28;973;-79
2022/12/27 00:57:54;;;;;;;;;;;;;;;21.11;28.44;98474.97;5097748;28;993;-79
2022/12/27 01:00:19;;;;;;;;;;;;;;;21.31;27.75;98473.03;5097593;28;1045;-79
2022/12/27 01:02:45;;;;;;;;;;;;;;;21.28;28.25;98462.53;5098021;28;925;-78
2022/12/27 01:05:11;;;;;;;;;;;;;;;21.13;27.94;98455.53;5097616;28;842;-79
2022/12/27 01:07:36;;;;;;;;;;;;;;;20.87;28.43;98459.19;5097888;28;1947;-78
2022/12/27 01:10:02;;;;;;;;;;;;;;;20.90;28.52;98455.53;5097085;28;1079;-78
2022/12/27 01:12:27;;;;;;;;;;;;;;;20.64;28.95;98452.28;5097937;28;951;-78
2022/12/27 01:14:53;;;;;;;;;;;;;;;21.09;28.30;98454.81;5096990;28;961;-77
2022/12/27 01:17:18;;;;;;;;;;;;;;;21.09;28.38;98454.81;5097921;28;884;-78
2022/12/27 01:19:44;;;;;;;;;;;;;;;21.21;28.05;98451.34;5078623;28;924;-79
2022/12/27 01:22:09;;;;;;;;;;;;;;;21.13;28.10;98454.72;5097743;28;1002;-78
2022/12/27 01:24:34;;;;;;;;;;;;;;;20.90;28.35;98442.19;5077687;28;1009;-78
2022/12/27 01:27:01;;;;;;;;;;;;;;;20.71;28.71;98435.22;5097781;28;1033;-79
2022/12/27 01:29:26;;;;;;;;;;;;;;;21.14;28.38;98434.50;5100825;28;1974;-78
2022/12/27 01:31:52;;;;;;;;;;;;;;;21.28;27.92;98434.22;5101374;28;1460;-79
2022/12/27 01:34:17;;;;;;;;;;;;;;;21.38;27.70;98431.66;5101086;28;1014;-78
2022/12/27 01:36:43;;;;;;;;;;;;;;;21.26;28.03;98425.38;5101750;28;888;-79
2022/12/27 01:39:12;;;;;;;;;;;;;;;20.94;28.74;98430.81;5100953;28;1107;-78
2022/12/27 01:44:50;;;;;;;;;;;;;;;20.57;29.07;98438.25;5100891;28;955;-78
2022/12/27 01:47:29;;;;;;;;;;;;;;;21.00;28.58;98434.75;5101853;28;1973;-78
2022/12/27 01:50:01;;;;;;;;;;;;;;;21.40;27.90;98427.19;5099416;28;889;-78
2022/12/27 01:52:32;;;;;;;;;;;;;;;21.32;28.19;98417.22;5101125;28;943;-79
2022/12/27 01:54:58;;;;;;;;;;;;;;;20.97;28.37;98418.63;5099323;28;1074;-78
2022/12/27 01:57:25;;;;;;;;;;;;;;;20.79;28.67;98413.28;5099975;28;989;-78
2022/12/27 01:59:50;;;;;;;;;;;;;;;20.73;28.82;98409.34;5100206;28;927;-78
2022/12/27 02:02:16;;;;;;;;;;;;;;;21.02;28.35;98399.13;5101153;28;841;-78
2022/12/27 02:04:41;;;;;;;;;;;;;;;21.25;28.09;98398.31;5100456;28;942;-78
2022/12/27 02:07:06;;;;;;;;;;;;;;;21.39;27.88;98387.97;5099617;28;1981;-78
2022/12/27 02:09:37;;;;;;;;;;;;;;;21.09;28.19;98395.38;5100093;28;872;-78
2022/12/27 02:12:04;;;;;;;;;;;;;;;20.79;28.87;98402.75;5100037;28;1062;-78
2022/12/27 02:14:40;;;;;;;;;;;;;;;20.70;28.98;98398.88;5099134;28;994;-78
2022/12/27 02:17:09;;;;;;;;;;;;;;;20.99;28.76;98399.19;5101370;28;945;-78
2022/12/27 02:19:40;;;;;;;;;;;;;;;21.25;28.40;98406.81;5100453;28;1090;-78
2022/12/27 02:22:21;;;;;;;;;;;;;;;21.24;28.16;98404.38;5100851;28;971;-78
2022/12/27 02:24:56;;;;;;;;;;;;;;;20.85;28.61;98405.09;5098867;28;949;-78
2022/12/27 02:27:40;;;;;;;;;;;;;;;20.83;28.59;98401.88;5100436;28;1898;-78
2022/12/27 02:30:06;;;;;;;;;;;;;;;20.83;29.02;98396.22;5099886;28;970;-78
2022/12/27 02:32:35;;;;;;;;;;;;;;;21.23;28.17;98391.47;5099363;28;1164;-79
2022/12/27 02:35:04;;;;;;;;;;;;;;;21.26;28.02;98397.06;5098860;28;938;-79
2022/12/27 02:37:30;;;;;;;;;;;;;;;21.13;28.15;98392.47;5099310;28;1004;-79
2022/12/27 02:53:02;;;;;;;;;;;;;;;20.92;28.42;98390.81;5096666;28;1243;-78
2022/12/27 02:53:46;;;;;;;;;;;;;;;21.01;28.25;98397.53;5098856;28;944;-78
2022/12/27 02:59:11;;;;;;;;;;;;;;;21.10;28.46;98391.31;5099502;28;879;-78
2022/12/27 03:04:46;;;;;;;;;;;;;;;21.51;27.96;98378.84;5098342;28;1031;-79
2022/12/27 03:07:12;;;;;;;;;;;;;;;21.06;28.21;98387.75;5099597;28;1977;-78
2022/12/27 03:18:13;;;;;;;;;;;;;;;21.46;28.11;98365.19;5099049;28;938;-78
2022/12/27 03:26:07;;;;;;;;;;;;;;;20.85;29.09;98368.34;5099538;28;1095;-79
2022/12/27 03:34:30;;;;;;;;;;;;;;;20.97;28.67;98370.53;5098590;28;1000;-78
2022/12/27 03:39:36;;;;;;;;;;;;;;;20.93;28.70;98366.97;5098271;28;986;-79
2022/12/27 03:44:48;;;;;;;;;;;;;;;21.13;28.47;98358.50;5097284;28;1189;-78
2022/12/27 03:47:20;;;;;;;;;;;;;;;21.12;28.01;98362.59;5098992;28;1968;-78
2022/12/27 03:49:49;;;;;;;;;;;;;;;20.69;28.86;98358.50;5095987;28;947;-78
2022/12/27 03:52:16;;;;;;;;;;;;;;;20.51;29.42;98353.13;5079942;28;987;-77
2022/12/27 03:54:42;;;;;;;;;;;;;;;21.03;28.38;98351.81;5079402;28;1047;-79
2022/12/27 03:57:11;;;;;;;;;;;;;;;21.19;28.26;98343.44;5063798;28;1265;-78
2022/12/27 03:59:37;;;;;;;;;;;;;;;21.23;28.05;98341.31;5062633;28;963;-79
2022/12/27 04:02:02;;;;;;;;;;;;;;;20.99;28.43;98339.78;5063950;28;1087;-79
2022/12/27 04:04:28;;;;;;;;;;;;;;;20.50;29.49;98340.22;5079340;28;1152;-78
2022/12/27 04:06:53;;;;;;;;;;;;;;;20.54;29.18;98334.53;5096851;28;1078;-79
2022/12/27 04:36:39;;;;;;;;;;;;;;;20.80;28.80;98342.13;5055501;28;999;-79
2022/12/27 04:39:05;;;;;;;;;;;;;;;20.75;28.62;98327.69;5055107;28;962;-79
2022/12/27 04:55:10;;;;;;;;;;;;;;;20.55;28.92;98339.75;5097166;28;950;-79
2022/12/27 04:57:36;;;;;;;;;;;;;;;20.72;28.73;98345.50;5097730;28;884;-78
2022/12/27 05:02:46;;;;;;;;;;;;;;;21.09;28.16;98335.97;5099238;28;1376;-79
2022/12/27 05:05:11;;;;;;;;;;;;;;;21.17;27.94;98339.44;5101701;28;876;-78
2022/12/27 05:15:48;;;;;;;;;;;;;;;21.18;27.90;98339.00;5102411;28;938;-79
2022/12/27 05:18:14;;;;;;;;;;;;;;;21.46;27.62;98342.53;5101173;28;1075;-78
2022/12/27 05:20:39;;;;;;;;;;;;;;;21.31;27.99;98342.81;5101383;28;1411;-79
2022/12/27 05:25:50;;;;;;;;;;;;;;;20.64;28.62;98338.41;5084562;28;1449;-78
2022/12/27 05:28:15;;;;;;;;;;;;;;;20.85;28.44;98348.53;5100433;28;1906;-78
2022/12/27 05:30:41;;;;;;;;;;;;;;;21.11;28.05;98335.53;5101918;28;1287;-78
2022/12/27 05:33:07;;;;;;;;;;;;;;;21.26;27.95;98334.81;5091512;28;1467;-79
2022/12/27 05:35:33;;;;;;;;;;;;;;;21.25;27.98;98344.53;5091711;28;1483;-78
2022/12/27 05:37:58;;;;;;;;;;;;;;;21.01;28.25;98337.31;5100845;28;1550;-79
2022/12/27 05:40:24;;;;;;;;;;;;;;;20.71;28.77;98339.06;5100870;28;1453;-78
2022/12/27 05:42:49;;;;;;;;;;;;;;;20.88;28.52;98330.69;5093855;28;1270;-78
2022/12/27 05:45:15;;;;;;;;;;;;;;;21.38;27.66;98335.41;5096808;28;1524;-79
2022/12/27 05:47:40;;;;;;;;;;;;;;;21.35;27.96;98336.28;5100484;28;1964;-79
2022/12/27 05:50:06;;;;;;;;;;;;;;;21.31;28.01;98330.72;5100327;28;948;-79
2022/12/27 05:52:31;;;;;;;;;;;;;;;21.07;27.93;98332.75;5101909;28;1051;-79
2022/12/27 05:54:57;;;;;;;;;;;;;;;20.84;28.71;98329.97;5083098;28;1580;-78
2022/12/27 05:57:22;;;;;;;;;;;;;;;20.58;28.83;98323.97;5101372;28;915;-79
2022/12/27 05:59:48;;;;;;;;;;;;;;;20.92;28.64;98322.94;5100818;28;932;-78
2022/12/27 06:02:13;;;;;;;;;;;;;;;21.16;28.02;98313.19;5101020;28;1022;-78
2022/12/27 06:04:39;;;;;;;;;;;;;;;21.31;27.96;98313.72;5100772;28;918;-78
2022/12/27 06:07:04;;;;;;;;;;;;;;;21.12;28.08;98318.09;5101491;28;961;-79
2022/12/27 06:09:29;;;;;;;;;;;;;;;20.90;28.66;98311.28;5080931;28;1983;-79
2022/12/27 06:11:55;;;;;;;;;;;;;;;20.94;28.55;98312.00;5100798;28;975;-79
2022/12/27 06:14:20;;;;;;;;;;;;;;;21.16;28.49;98313.19;5100520;28;911;-79
2022/12/27 06:16:46;;;;;;;;;;;;;;;21.29;28.22;98316.94;5099981;28;1460;-79
2022/12/27 06:19:11;;;;;;;;;;;;;;;21.29;27.84;98316.94;5098825;28;906;-79
2022/12/27 06:21:37;;;;;;;;;;;;;;;20.88;28.52;98325.03;5100320;28;918;-79
2022/12/27 06:24:02;;;;;;;;;;;;;;;20.92;28.37;98328.59;5098468;28;982;-78
2022/12/27 06:26:28;;;;;;;;;;;;;;;20.41;29.02;98317.34;5100323;28;980;-78
2022/12/27 06:28:53;;;;;;;;;;;;;;;21.08;28.43;98317.38;5098736;28;2004;-79
2022/12/27 06:31:19;;;;;;;;;;;;;;;21.27;28.25;98325.06;5100771;28;1184;-78
2022/12/27 06:33:45;;;;;;;;;;;;;;;21.18;28.04;98326.88;5098251;28;1293;-79
2022/12/27 06:36:11;;;;;;;;;;;;;;;21.40;27.84;98324.44;5100878;28;890;-79
2022/12/27 06:38:36;;;;;;;;;;;;;;;21.17;28.30;98320.44;5099904;28;1136;-79
2022/12/27 06:41:02;;;;;;;;;;;;;;;20.74;28.75;98326.91;5099639;28;905;-79
2022/12/27 06:43:28;;;;;;;;;;;;;;;20.63;28.87;98334.78;5098315;28;1158;-78
2022/12/27 06:45:57;;;;;;;;;;;;;;;20.86;28.94;98347.31;5100589;28;903;-79
2022/12/27 06:48:23;;;;;;;;;;;;;;;21.18;28.08;98327.69;5080487;28;1977;-79
2022/12/27 06:50:48;;;;;;;;;;;;;;;21.26;28.28;98334.81;5100632;28;947;-79
2022/12/27 06:53:14;;;;;;;;;;;;;;;21.10;28.23;98331.09;5099485;28;961;-79
2022/12/27 06:55:39;;;;;;;;;;;;;;;20.80;28.82;98335.69;5099931;28;951;-79
2022/12/27 06:58:04;;;;;;;;;;;;;;;20.75;28.50;98336.97;5098746;28;1123;-78
2022/12/27 07:00:30;;;;;;;;;;;;;;;21.05;28.46;98335.22;5100433;28;999;-79
2022/12/27 07:02:55;;;;;;;;;;;;;;;21.24;28.31;98334.47;5099386;28;942;-78
2022/12/27 07:05:21;;;;;;;;;;;;;;;21.33;27.93;98329.03;5099755;28;867;-78
2022/12/27 07:07:46;;;;;;;;;;;;;;;21.14;28.10;98331.81;5099599;28;1902;-78
2022/12/27 07:10:12;;;;;;;;;;;;;;;20.84;28.62;98329.97;5080242;28;975;-79
2022/12/27 07:12:37;;;;;;;;;;;;;;;20.73;28.69;98336.63;5099384;28;1012;-79
2022/12/27 07:15:04;;;;;;;;;;;;;;;21.11;28.37;98327.03;5098703;28;992;-79
2022/12/27 07:17:30;;;;;;;;;;;;;;;21.18;28.21;98330.50;5099595;28;870;-79
2022/12/27 07:19:56;;;;;;;;;;;;;;;21.33;28.09;98322.56;5098791;28;907;-79
2022/12/27 07:22:21;;;;;;;;;;;;;;;21.08;28.36;98329.47;5099369;28;939;-79
2022/12/27 07:24:47;;;;;;;;;;;;;;;20.93;28.48;98338.69;5098386;28;917;-79
2022/12/27 07:27:14;;;;;;;;;;;;;;;20.86;28.72;98333.16;5099425;28;974;-79
2022/12/27 07:29:39;;;;;;;;;;;;;;;21.06;28.42;98326.31;5079862;28;1960;-78
2022/12/27 07:32:04;;;;;;;;;;;;;;;21.38;27.95;98329.75;5099051;28;1214;-79
2022/12/27 07:34:30;;;;;;;;;;;;;;;21.43;27.76;98326.41;5098588;28;898;-79
2022/12/27 07:36:55;;;;;;;;;;;;;;;20.97;28.68;98333.75;5099399;28;1087;-79
2022/12/27 07:39:21;;;;;;;;;;;;;;;20.85;28.71;98328.75;5098401;28;1035;-78
2022/12/27 07:41:46;;;;;;;;;;;;;;;20.62;29.03;98324.69;5098847;28;990;-78
2022/12/27 07:44:12;;;;;;;;;;;;;;;21.01;28.54;98323.19;5079016;28;971;-79
2022/12/27 07:46:38;;;;;;;;;;;;;;;21.33;28.22;98334.69;5099076;28;1111;-79
2022/12/27 07:49:04;;;;;;;;;;;;;;;21.25;28.19;98326.75;5098465;28;1901;-79
2022/12/27 07:51:29;;;;;;;;;;;;;;;21.13;28.28;98331.00;5099026;28;1101;-79
2022/12/27 07:53:55;;;;;;;;;;;;;;;20.55;29.24;98336.13;5098176;28;970;-79
2022/12/27 07:56:21;;;;;;;;;;;;;;;20.72;28.79;98340.66;5098538;28;973;-79
2022/12/27 07:58:47;;;;;;;;;;;;;;;20.79;28.91;98334.91;5098113;28;922;-79
2022/12/27 08:01:13;;;;;;;;;;;;;;;21.24;28.25;98331.63;5079927;28;1210;-79
2022/12/27 08:03:38;;;;;;;;;;;;;;;21.36;28.27;98332.22;5098099;28;1057;-79
2022/12/27 08:06:04;;;;;;;;;;;;;;;21.30;27.93;98343.28;5098802;28;1124;-79
2022/12/27 08:08:39;;;;;;;;;;;;;;;20.80;28.74;98347.78;5078880;28;1977;-78
2022/12/27 08:11:05;;;;;;;;;;;;;;;20.63;28.95;98348.13;5098065;28;1005;-79
2022/12/27 08:13:30;;;;;;;;;;;;;;;20.79;28.96;98351.06;5097642;28;1035;-78
2022/12/27 08:15:56;;;;;;;;;;;;;;;21.25;28.15;98338.88;5098775;28;1432;-79
2022/12/27 08:18:21;;;;;;;;;;;;;;;21.37;28.21;98339.50;5097947;28;1465;-79
2022/12/27 08:20:47;;;;;;;;;;;;;;;21.27;28.11;98339.22;5094321;28;1372;-79
2022/12/27 08:23:12;;;;;;;;;;;;;;;20.96;28.61;98343.47;5096856;28;1555;-78
2022/12/27 08:25:38;;;;;;;;;;;;;;;20.81;29.10;98349.38;5109595;28;1288;-79
2022/12/27 08:28:07;;;;;;;;;;;;;;;20.79;28.75;98334.91;5090264;28;1913;-79
2022/12/27 08:30:33;;;;;;;;;;;;;;;21.11;28.54;98335.53;5100869;28;1603;-79
2022/12/27 08:32:59;;;;;;;;;;;;;;;21.08;28.39;98332.31;5097565;28;1588;-79
2022/12/27 08:35:25;;;;;;;;;;;;;;;21.12;28.58;98329.41;5097843;28;884;-79
2022/12/27 08:37:50;;;;;;;;;;;;;;;20.97;28.57;98339.41;5097873;28;863;-79
2022/12/27 08:40:16;;;;;;;;;;;;;;;20.87;28.95;98337.56;5096740;28;840;-79
2022/12/27 08:42:41;;;;;;;;;;;;;;;20.71;29.06;98327.75;5098177;28;1184;-79
2022/12/27 08:45:07;;;;;;;;;;;;;;;20.87;29.04;98323.44;5097108;28;1122;-78
2022/12/27 08:47:32;;;;;;;;;;;;;;;21.32;28.09;98310.44;5078772;28;1972;-78
2022/12/27 08:49:58;;;;;;;;;;;;;;;21.28;28.43;98306.06;5097567;28;944;-79
2022/12/27 08:52:24;;;;;;;;;;;;;;;21.33;28.09;98317.69;5097937;28;865;-79
2022/12/27 08:54:49;;;;;;;;;;;;;;;21.04;28.40;98313.84;5097865;28;899;-78
2022/12/27 08:57:15;;;;;;;;;;;;;;;20.73;29.00;98308.34;5097776;28;1030;-78
2022/12/27 08:59:40;;;;;;;;;;;;;;;20.67;28.91;98310.03;5097397;28;941;-79
2022/12/27 09:02:06;;;;;;;;;;;;;;;21.08;28.73;98311.72;5098363;28;889;-78
2022/12/27 09:04:32;;;;;;;;;;;;;;;21.26;28.38;98300.06;5096066;28;1088;-79
2022/12/27 09:06:57;;;;;;;;;;;;;;;21.32;28.33;98299.13;5079863;28;936;-78
2022/12/27 09:09:22;;;;;;;;;;;;;;;21.13;28.34;98291.41;5095986;28;1984;-79
2022/12/27 09:11:48;;;;;;;;;;;;;;;20.95;28.72;98291.75;5098649;28;1035;-79
2022/12/27 09:14:13;;;;;;;;;;;;;;;20.79;28.87;98295.28;5096843;28;1195;-78
2022/12/27 09:16:39;;;;;;;;;;;;;;;21.07;28.65;98282.63;5098229;28;978;-78
2022/12/27 09:19:04;;;;;;;;;;;;;;;21.16;28.33;98284.88;5097037;28;1058;-79
2022/12/27 09:21:30;;;;;;;;;;;;;;;21.11;28.57;98282.56;5097668;28;891;-78
2022/12/27 09:23:56;;;;;;;;;;;;;;;21.21;28.57;98278.72;5097243;28;933;-79
2022/12/27 09:26:22;;;;;;;;;;;;;;;21.19;28.38;98277.53;5097901;28;904;-79
2022/12/27 09:28:48;;;;;;;;;;;;;;;20.80;28.96;98277.09;5097058;28;2251;-79
2022/12/27 09:31:13;;;;;;;;;;;;;;;20.72;29.10;98269.97;5097786;28;1025;-78
2022/12/27 09:33:39;;;;;;;;;;;;;;;21.28;28.33;98263.59;5096570;28;943;-79
2022/12/27 09:36:05;;;;;;;;;;;;;;;21.13;28.49;98257.44;5097891;28;937;-78
2022/12/27 09:38:31;;;;;;;;;;;;;;;21.41;28.06;98249.63;5096816;28;979;-79
2022/12/27 09:40:58;;;;;;;;;;;;;;;21.12;28.24;98249.41;5097351;28;1214;-79
2022/12/27 09:43:27;;;;;;;;;;;;;;;20.83;28.83;98249.16;5096325;28;886;-78
2022/12/27 09:45:53;;;;;;;;;;;;;;;20.67;29.05;98249.88;5096649;28;990;-78
2022/12/27 09:48:21;;;;;;;;;;;;;;;20.98;28.94;98250.47;5095893;28;1901;-79
2022/12/27 09:50:51;;;;;;;;;;;;;;;21.12;28.47;98255.84;5101518;28;985;-79
2022/12/27 09:53:21;;;;;;;;;;;;;;;21.46;28.08;98252.75;5099630;28;1193;-79
2022/12/27 09:55:50;;;;;;;;;;;;;;;20.99;28.46;98254.94;5101518;28;1165;-79
2022/12/27 09:58:31;;;;;;;;;;;;;;;21.06;28.48;98246.28;5099357;28;1157;-78
2022/12/27 10:00:56;;;;;;;;;;;;;;;20.71;28.92;98245.75;5100009;28;1463;-79
2022/12/27 10:03:25;;;;;;;;;;;;;;;21.04;28.64;98245.94;5100314;28;898;-79
2022/12/27 10:05:52;;;;;;;;;;;;;;;21.30;28.22;98245.00;5100108;28;1014;-78
2022/12/27 10:08:27;;;;;;;;;;;;;;;21.31;28.15;98229.59;5099091;28;1894;-79
2022/12/27 10:10:55;;;;;;;;;;;;;;;21.04;28.68;98232.59;5101279;28;832;-79
2022/12/27 10:13:39;;;;;;;;;;;;;;;20.86;29.02;98231.34;5099994;28;927;-79
2022/12/27 10:16:23;;;;;;;;;;;;;;;20.86;29.02;98220.81;5099063;28;2060;-79
2022/12/27 10:19:09;;;;;;;;;;;;;;;21.19;28.79;98215.28;5100161;28;929;-78
2022/12/27 10:21:36;;;;;;;;;;;;;;;21.14;28.56;98210.97;5099808;28;1271;-79
2022/12/27 10:24:14;;;;;;;;;;;;;;;21.25;28.31;98208.69;5098818;28;1040;-78
2022/12/27 10:26:40;;;;;;;;;;;;;;;21.09;28.44;98217.13;5099844;28;928;-78
2022/12/27 10:29:26;;;;;;;;;;;;;;;20.59;29.37;98183.41;5099783;28;1955;-79
2022/12/27 10:31:52;;;;;;;;;;;;;;;20.81;29.41;98205.16;5100938;28;1429;-79
2022/12/27 10:34:23;;;;;;;;;;;;;;;21.21;28.42;98202.31;5100438;28;1127;-79
2022/12/27 10:36:49;;;;;;;;;;;;;;;21.22;28.41;98198.25;5099228;28;967;-79
2022/12/27 10:39:18;;;;;;;;;;;;;;;21.30;28.35;98196.88;5098828;28;860;-79
2022/12/27 10:41:53;;;;;;;;;;;;;;;20.99;28.75;98184.22;5082091;28;905;-78
2022/12/27 10:44:18;;;;;;;;;;;;;;;20.80;29.14;98189.44;5100206;28;984;-78
2022/12/27 10:46:48;;;;;;;;;;;;;;;20.74;29.21;98173.41;5100491;28;1105;-79
2022/12/27 10:49:21;;;;;;;;;;;;;;;21.08;28.88;98178.72;5098063;28;1977;-78
2022/12/27 10:51:47;;;;;;;;;;;;;;;21.14;28.83;98184.69;5099012;28;966;-79
2022/12/27 10:54:24;;;;;;;;;;;;;;;21.27;28.31;98165.81;5098207;28;1020;-79
2022/12/27 10:56:49;;;;;;;;;;;;;;;21.25;28.19;98173.94;5099964;28;941;-79
2022/12/27 10:59:16;;;;;;;;;;;;;;;20.88;28.71;98173.13;5097720;28;1003;-79
2022/12/27 11:01:41;;;;;;;;;;;;;;;20.62;29.24;98165.56;5099088;28;898;-79
2022/12/27 11:04:11;;;;;;;;;;;;;;;21.27;28.44;98160.94;5099862;28;1018;-79
2022/12/27 11:06:37;;;;;;;;;;;;;;;21.05;28.57;98165.47;5064573;28;854;-79
2022/12/27 11:09:17;;;;;;;;;;;;;;;21.26;28.24;98165.00;5098832;28;1968;-79
2022/12/27 11:11:43;;;;;;;;;;;;;;;21.16;28.36;98149.06;5099407;28;1172;-78
2022/12/27 11:14:09;;;;;;;;;;;;;;;20.94;28.81;98153.59;5099398;28;955;-79
2022/12/27 11:16:35;;;;;;;;;;;;;;;20.76;29.19;98143.44;5100027;28;899;-78
2022/12/27 11:19:00;;;;;;;;;;;;;;;20.79;28.88;98148.25;5098650;28;965;-79
2022/12/27 11:21:26;;;;;;;;;;;;;;;21.01;28.87;98154.22;5100028;28;955;-79
2022/12/27 11:23:53;;;;;;;;;;;;;;;21.31;28.23;98146.75;5097815;28;985;-79
2022/12/27 11:26:23;;;;;;;;;;;;;;;21.28;28.15;98139.88;5082033;28;1070;-78
2022/12/27 11:28:58;;;;;;;;;;;;;;;20.92;28.65;98139.09;5098570;28;1901;-79
2022/12/27 11:31:34;;;;;;;;;;;;;;;20.74;29.25;98134.63;5098327;28;1251;-78
2022/12/27 11:34:20;;;;;;;;;;;;;;;20.59;29.64;98138.97;5097234;28;965;-80
2022/12/27 11:36:47;;;;;;;;;;;;;;;21.18;28.40;98120.31;5017306;28;1044;-79
2022/12/27 11:39:51;;;;;;;;;;;;;;;21.15;28.26;98124.84;5016305;28;970;-79
2022/12/27 11:42:37;;;;;;;;;;;;;;;21.43;27.83;98123.38;4958689;29;1261;-79
2022/12/27 11:45:05;;;;;;;;;;;;;;;21.24;28.04;98122.22;4958229;29;1026;-79
2022/12/27 11:47:32;;;;;;;;;;;;;;;21.03;28.53;98133.97;4958192;29;1978;-79
2022/12/27 11:50:15;;;;;;;;;;;;;;;20.86;28.71;98135.19;4942286;29;1144;-79
2022/12/27 11:53:00;;;;;;;;;;;;;;;20.79;28.91;98125.63;4958124;29;1226;-79
2022/12/27 11:55:57;;;;;;;;;;;;;;;21.01;28.74;98137.25;4958091;29;1026;-79
2022/12/27 11:58:41;;;;;;;;;;;;;;;21.16;28.37;98134.91;4919343;29;1026;-79
2022/12/27 12:01:10;;;;;;;;;;;;;;;21.44;27.75;98130.63;4920838;29;1029;-79
2022/12/27 12:03:38;;;;;;;;;;;;;;;20.89;28.66;98140.78;4919275;29;986;-79
2022/12/27 12:06:06;;;;;;;;;;;;;;;20.72;28.88;98124.97;4920407;29;1074;-79
2022/12/27 12:08:37;;;;;;;;;;;;;;;20.59;29.41;98115.56;4919444;29;1915;-79
2022/12/27 12:11:25;;;;;;;;;;;;;;;21.06;28.57;98110.50;4920928;29;1116;-79
2022/12/27 12:13:56;;;;;;;;;;;;;;;21.08;28.56;98108.00;4972726;28;1021;-79
2022/12/27 12:16:30;;;;;;;;;;;;;;;21.09;28.39;98103.97;5036430;28;1074;-79
2022/12/27 12:18:59;;;;;;;;;;;;;;;20.94;28.65;98114.00;5035997;28;945;-78
2022/12/27 12:21:26;;;;;;;;;;;;;;;20.91;28.83;98120.53;5036769;28;1026;-79
2022/12/27 12:24:06;;;;;;;;;;;;;;;20.94;28.86;98114.81;5035506;28;1106;-79
2022/12/27 12:26:38;;;;;;;;;;;;;;;21.25;28.38;98120.97;5036287;28;1060;-79
2022/12/27 12:29:04;;;;;;;;;;;;;;;21.21;28.53;98117.41;5035369;28;1899;-79
2022/12/27 12:31:43;;;;;;;;;;;;;;;21.29;28.51;98118.81;5035798;28;1278;-79
2022/12/27 12:34:16;;;;;;;;;;;;;;;21.06;28.72;98138.78;5070001;28;995;-78
2022/12/27 12:36:45;;;;;;;;;;;;;;;20.77;29.21;98139.38;5097092;28;941;-78
2022/12/27 12:39:10;;;;;;;;;;;;;;;20.72;29.45;98133.44;5097116;28;1940;-78
2022/12/27 12:41:54;;;;;;;;;;;;;;;21.23;28.63;98143.22;5092416;28;1516;-79
2022/12/27 12:44:43;;;;;;;;;;;;;;;21.36;28.62;98131.28;5094902;28;1439;-78
2022/12/27 12:47:11;;;;;;;;;;;;;;;21.33;28.58;98142.22;5024946;28;1508;-79
2022/12/27 12:49:55;;;;;;;;;;;;;;;20.93;29.05;98135.00;5015290;28;1895;-79
2022/12/27 12:52:49;;;;;;;;;;;;;;;20.86;29.22;98149.31;5015686;28;1058;-79
2022/12/27 12:55:24;;;;;;;;;;;;;;;21.05;29.21;98157.00;4976720;28;1018;-79
2022/12/27 12:57:55;;;;;;;;;;;;;;;21.18;29.02;98149.41;4960248;28;1356;-78
2022/12/27 13:00:21;;;;;;;;;;;;;;;21.48;28.61;98148.34;4976716;28;985;-79
2022/12/27 13:02:52;;;;;;;;;;;;;;;21.40;28.26;98148.94;4976925;28;971;-79
2022/12/27 13:05:35;;;;;;;;;;;;;;;21.02;28.89;98161.47;4976574;28;1056;-80
2022/12/27 13:08:11;;;;;;;;;;;;;;;20.75;29.59;98158.03;4959895;28;1969;-79
2022/12/27 13:10:49;;;;;;;;;;;;;;;20.98;29.32;98160.75;4960554;28;944;-79
2022/12/27 13:13:35;;;;;;;;;;;;;;;21.20;28.92;98171.63;4976099;28;1083;-79
2022/12/27 13:16:12;;;;;;;;;;;;;;;21.38;28.78;98171.25;4957751;29;987;-80
2022/12/27 13:18:37;;;;;;;;;;;;;;;21.21;28.87;98176.03;4956366;28;1010;-79
2022/12/27 13:21:05;;;;;;;;;;;;;;;21.01;29.23;98176.06;4957549;29;1029;-79
2022/12/27 13:23:49;;;;;;;;;;;;;;;20.84;29.71;98177.25;4966831;28;1154;-80
2022/12/27 13:26:20;;;;;;;;;;;;;;;21.02;29.67;98172.00;4999587;28;1538;-79
2022/12/27 13:28:46;;;;;;;;;;;;;;;21.14;29.38;98168.53;4982989;28;1990;-79
2022/12/27 13:31:11;;;;;;;;;;;;;;;21.30;29.04;98171.41;4999935;28;1604;-80
2022/12/27 13:33:55;;;;;;;;;;;;;;;21.42;28.95;98174.78;5006541;28;1428;-80
2022/12/27 13:36:23;;;;;;;;;;;;;;;21.01;29.36;98164.75;5013596;28;1622;-79
2022/12/27 13:39:08;;;;;;;;;;;;;;;20.87;29.71;98162.22;4992940;28;1673;-79
2022/12/27 13:41:51;;;;;;;;;;;;;;;20.96;29.63;98173.75;4999687;28;953;-79
2022/12/27 13:44:17;;;;;;;;;;;;;;;21.29;29.34;98186.75;4999397;28;1258;-80
2022/12/27 13:46:42;;;;;;;;;;;;;;;21.65;28.56;98180.28;4999157;28;1012;-79
2022/12/27 13:49:13;;;;;;;;;;;;;;;21.83;28.41;98197.66;4982391;28;1979;-79
2022/12/27 13:51:42;;;;;;;;;;;;;;;21.22;29.39;98197.44;4999332;28;1123;-79
2022/12/27 13:54:27;;;;;;;;;;;;;;;20.99;29.48;98185.00;5072506;28;1100;-79
2022/12/27 13:57:07;;;;;;;;;;;;;;;20.90;29.48;98187.63;5080953;28;1402;-79
2022/12/27 13:59:35;;;;;;;;;;;;;;;21.05;29.88;98199.44;5080252;28;1043;-79
2022/12/27 14:02:16;;;;;;;;;;;;;;;21.13;29.22;98195.19;5046287;28;1036;-78
2022/12/27 14:04:50;;;;;;;;;;;;;;;21.38;29.09;98193.88;5080144;28;939;-78
2022/12/27 14:07:34;;;;;;;;;;;;;;;21.10;29.14;98198.91;5080532;28;929;-78
2022/12/27 14:10:09;;;;;;;;;;;;;;;20.86;29.49;98200.22;5079936;28;940;-79
2022/12/27 14:12:37;;;;;;;;;;;;;;;20.84;29.77;98202.72;5079813;28;910;-79
2022/12/27 14:15:03;;;;;;;;;;;;;;;21.26;28.98;98198.16;5079918;28;951;-79
2022/12/27 14:17:41;;;;;;;;;;;;;;;21.56;28.40;98205.63;5090843;28;1099;-78
2022/12/27 14:20:25;;;;;;;;;;;;;;;21.43;28.66;98199.81;5100649;28;911;-79
2022/12/27 14:23:09;;;;;;;;;;;;;;;21.14;28.77;98198.81;5100525;28;992;-79
2022/12/27 14:25:43;;;;;;;;;;;;;;;21.05;28.90;98202.25;5099379;28;1112;-79
2022/12/27 14:28:15;;;;;;;;;;;;;;;20.92;29.40;98201.31;5099937;28;1980;-78
2022/12/27 14:30:55;;;;;;;;;;;;;;;21.06;29.34;98209.50;5100534;28;1050;-78
2022/12/27 14:33:24;;;;;;;;;;;;;;;21.33;28.95;98210.16;5098756;28;972;-79
2022/12/27 14:36:08;;;;;;;;;;;;;;;21.16;28.55;98211.31;5100364;28;988;-79
2022/12/27 14:38:52;;;;;;;;;;;;;;;21.01;28.96;98221.34;5099661;28;901;-78
2022/12/27 14:41:17;;;;;;;;;;;;;;;20.84;29.20;98216.84;5100853;28;948;-79
2022/12/27 14:43:58;;;;;;;;;;;;;;;21.04;29.34;98217.66;5099174;28;1126;-79
2022/12/27 14:46:29;;;;;;;;;;;;;;;21.11;28.84;98220.31;5099155;28;969;-79
2022/12/27 14:49:07;;;;;;;;;;;;;;;21.20;28.60;98222.56;5099213;28;1973;-77
2022/12/27 14:51:51;;;;;;;;;;;;;;;21.19;28.93;98232.25;5100526;28;888;-79
2022/12/27 14:54:35;;;;;;;;;;;;;;;20.89;28.93;98241.78;5099378;28;1172;-79